INDIA METEOROLOGICAL DEPARTMENT, R.M.C. NEW DELHI
Dated:21 - 9 - 2014
METARS


Agartala   
VEAT 210930Z 13007KT 5000 BR FEW010 SCT018 BKN100 28/25 Q1004 NOSIG=
Ahmedabad  
VAAH 210940Z 25004KT 6000 SCT020 SCT025 33/24 Q1006 NOSIG=
Amritsar   
VIAR 211000Z 28004KT 250V310 7000 NSC 32/22 Q1004=
Aurangabad 
VAAU 210900Z 36002KT 6000 FEW020 SCT025 31/20 Q1009=
Bangalore  
VOBL 211000Z 31007KT 9999 SCT012 SCT020 30/22 Q1011 NOSIG=
Baroda     
VABO 210900Z 27006KT6000 SCT020 33/24 Q1006=
Bhopal     
VABP 210900Z 32011KT 6000 FEW020 SCT030 31/21 Q1008 NOSIG=
Bhubaneswar
VEBS 210930Z 23007KT 5000 HZ SCT016 BKN090 30/27 Q1001 NOSIG=
Chennai    
VOMM 210940Z 12008KT 8000 SCT020 33/23 Q1004 NOSIG=
Coimbatore 
VOCB 211000Z 23006KT 7000 FEW018 33/19 Q1007 NOSIG=
Colombo    
VCBI 210910Z 23010KT 9999 SCT016 29/23 Q1007 NOSIG=
Delhi      
VIDP 210930Z 29010KT 5000 HZ NSC 35/17 Q1004 NOSIG =
Dehradun   
VIDN 210900Z 22006KT 3500 HZ FEW025 SCT040 31/24 Q1005=
Gauhati    
VEGT 210930Z 00000KT 3000 -RA FEW010 SCT016 FEW025CB OVC090 26/25 Q1005 NOSIG CB TO W=
Gaya       
VEGY 211000Z 26006KT 2500 -TSRA FEW010 BKN016 FEW030CB OVC080 27/26 Q1001 =
Gaggal     
VIGG 210830Z 22003KT 6000 FEW035 31/20 Q1008=
Hyderabad  
VOHS 210940Z 32007KT 5000 HZ SCT015 SCT025 BKN100 29/17 Q1009 NOSIG=
Imphal     
VEIM 210900Z 24002KT 6000 FEW018 SCT025 FEW030CB BKN100 31/23 Q1008 TEMPO 3000-TSRA=
Indore     
VAID 210900Z 27008KT 5000 HZ FEW020 SCT025 29/22 Q1009=
Jabalpur   
VAJB 210900Z 32006KT 7000 SCT030 33/23 Q1006=
Jaipur     
VIJP 210930Z 30007KT 4000 HZ NSC 34/20 Q1006 NOSIG=
Khajuraho  
SPECI VAKJ 210900Z 16005KT 6000 SCT025 BKN100 29/23 Q1004=
Kochi      
VOCI 211000Z 30012KT 6000 FEW015 SCT020 31/24 Q1007 NOSIG=
Kolkata    
VECC 210950Z 13006KT 2000 -RA SCT015 FEW025CB OVC080 27/26 Q1001 TEMPO TL1020 1500 TSRA=
Kozhikode  
VOCL 211000Z 30011KT 9999 FEW015 FEW025CB 31/23 Q1006 NOSIG =
Lucknow    
VILK 210930Z 00000KT 4000 HZ SCT018 SCT025 FEW030CB 35/28 Q1002 NOSIG=
Madurai    
VOMD 211000Z 02005KT 7000 FEW020 FEW025TCU SCT100 36/18 Q1005=
Mohanbari  
VEMN 210930Z 25005KT 4000 HZ FEW008 SCT018 FEW025CB (CB TO SE/SW) BKN100 29/26 Q1006 TEMPO VIS 3000 -RA=
Mumbai     
VABB 210940Z 28008KT 5000 HZ SCT018 SCT025 29/25 Q1007 NOSIG=
Nagpur     
VANP 210840Z 32006KT 6000 FEW020 SCT100 33/23 Q1005 NOSIG=
Pantnagar
VIPT 210930Z 27003KT 4500 HZ FEW030 32/24 Q1004 =
Patna      
VEPT 210950Z 05005KT 4000 HZ SCT018 FEW030CB BKN100 30/26 Q1000 NOSIG=
Raipur     
VARP 210900Z 28003KT 5000 HZ SCT020 BKN090 28/26 Q1005 NOSIG=
Safdarjung
VIDD 211000Z 29010KT 4000 HZ NSC 36/20 Q1003=
Surat     
VASU 210900Z 26006KT 6000 FEW025 33/24 Q1007=
Ranchi     
VERC 210930Z 36006KT 4000 HZ SCT010 SCT015 OVC080 25/24 Q1005 NOSIG =
Trichy     
VOTR 210940Z 34007KT 8000 FEW016 SCT020 37/20 Q1004 NOSIG=
Trivandrum 
VOTV 210940Z 27009KT 6000 SCT015 30/25 Q1006 NOSIG=
Udaipur    
VAUD 210800Z 35006KT 6000 FEW025 33/21 Q1010 NOSIG=
Varanasi   
VIBN 210830Z 05004KT 6000 HZ FEW025 SCT030 32/26 Q1002=
Vizag      
VOVZ 210900Z 21004KT 6000 FEW018 34/26 Q1001 NOSIG =
Male       
VRMM 210800Z 34008KT 9999 FEW018TCU BKN270 30/25 Q1010 NOSIG=
Gan        
VRMG 210900Z VRB02KT 9000 -RA FEW017TCU OVC090 26/24 Q1011=
Kathmandu   
VNKT 210950Z 28006KT 8000 DZ FEW020 FEW025CB SCT030 BKN100 24/20 Q1010 NOSIG CB TO SE=
Dhaka      
VGHS 210950Z 17008KT 4000 HZ BKN009 FEW025CB OVC080 28/25 Q1002 TEMPO TSRA=
Colombo     
VCBI 210910Z 23010KT 9999 SCT016 29/23 Q1007 NOSIG=
Karachi     
OPKC 210925Z 23013KT 6000 SCT020 BKN030 31/22 Q1005 NOSIG=
Lahore      
OPLA 210925Z 15004KT 8000 NSC 34/22 Q1004/A29.65=
Leh        
METRA VILH 210930Z 29012G22KT 6000 SCT070 22/M11 Q1017 NOSIG=
Thoise     
VITX 210830Z 11004KT 6000 SCT070 21/M06 Q1020 NOSIG=
Sri Nagar  
VISR 210930Z VRB02KT 6000 FEW025TCU FEW025 27/12 Q1014 NOSIG=
Jammu      
VIJU 210930Z 20005KT 8000 FEW030 32/23 Q1003 NOSIG=
Jodhpur    
VIJO 210930Z 24008KT 9999 SKC 33/20 Q1007 NOSIG=
Bhuj-Rudra 
VABJ 210930Z 26007KT 6000 SCT025 33/21 Q1006 NOSIG=
Gorakhpur  
VEGK 210930Z VRB02KT 6000 SCT025 32/24 Q1001 NOSIG=
Allahabad  
VIAL 210930Z 34005KT 6000 SCT025 FEW030TCU 34/26 Q1002 NOSIG=
Agra       
VIAG 210930Z 27008KT 6000 FEW030 36/20 Q1003 NOSIG=
Siliguri   
VEBD 210930Z 04008KT 6000 RA SCT010 SCT015 BKN090 26/24 Q1003 NOSIG=
Gwalior    
VIGR 210930Z 29006KT 6000 FEW030 35/21 Q1004 NOSIG=
Pune       
VAPO 210930Z 32008KT 6000 FEW025 SCT040 29/21 Q1011 NOSIG=
Chandigarh 
VICG 210930Z 29008KT 5000 HZ FEW030 36/20 Q1003 NOSIG=
Jamnagar   
VAJM 210930Z 29008KT 6000 FEW020 SCT030 32/23 Q1006 NOSIG=